Terminal Aerodrome Forecast
Issued by NWS

Home | Current Version | Previous Version | Text Only | Print | Product List | Glossary On
Versions: 1 2 3 4 5 6 7 8 9 10 11 12 13 14 15 16 17 18 19 20 21 22 23 24 25 26 27 28 29 30 31
000
FTUS43 KDVN 281605 AAB
TAFBRL
TAF AMD
KBRL 281605Z 2816/2912 22010KT P6SM BKN100
      TEMPO 2817/2820 3SM TSRA BKN035CB
     FM282000 18012G20KT P6SM VCTS BKN040CB
     FM290300 30006KT P6SM SCT025 BKN100=

USA.gov is the U.S. government's official web portal to all federal, state and local government web resources and services.